sensor_id;sensor_type;location;lat;lon;timestamp;temperature;humidity
4312;DHT22;2169;49.086;9.284;2023-01-26T00:01:07;2.40;70.30
4312;DHT22;2169;49.086;9.284;2023-01-26T00:03:34;2.40;70.30
4312;DHT22;2169;49.086;9.284;2023-01-26T00:06:02;2.40;70.30
4312;DHT22;2169;49.086;9.284;2023-01-26T00:08:30;2.40;70.30
4312;DHT22;2169;49.086;9.284;2023-01-26T00:11:02;2.40;70.30
4312;DHT22;2169;49.086;9.284;2023-01-26T00:13:31;2.40;70.30
4312;DHT22;2169;49.086;9.284;2023-01-26T00:15:59;2.40;70.30
4312;DHT22;2169;49.086;9.284;2023-01-26T00:18:28;2.40;70.30
4312;DHT22;2169;49.086;9.284;2023-01-26T00:20:55;2.40;70.30
4312;DHT22;2169;49.086;9.284;2023-01-26T00:23:23;2.30;70.20
4312;DHT22;2169;49.086;9.284;2023-01-26T00:25:50;2.40;70.30
4312;DHT22;2169;49.086;9.284;2023-01-26T00:28:17;2.30;70.20
4312;DHT22;2169;49.086;9.284;2023-01-26T00:30:43;2.30;70.20
4312;DHT22;2169;49.086;9.284;2023-01-26T00:33:10;2.30;70.20
4312;DHT22;2169;49.086;9.284;2023-01-26T00:35:38;2.30;70.20
4312;DHT22;2169;49.086;9.284;2023-01-26T00:38:09;2.30;70.30
4312;DHT22;2169;49.086;9.284;2023-01-26T00:40:35;2.30;70.30
4312;DHT22;2169;49.086;9.284;2023-01-26T00:43:02;2.30;70.30
4312;DHT22;2169;49.086;9.284;2023-01-26T00:45:29;2.30;70.30
4312;DHT22;2169;49.086;9.284;2023-01-26T00:47:55;2.30;70.30
4312;DHT22;2169;49.086;9.284;2023-01-26T00:50:23;2.30;70.40
4312;DHT22;2169;49.086;9.284;2023-01-26T00:52:51;2.30;70.40
4312;DHT22;2169;49.086;9.284;2023-01-26T00:55:18;2.30;70.40
4312;DHT22;2169;49.086;9.284;2023-01-26T00:57:45;2.30;70.50
4312;DHT22;2169;49.086;9.284;2023-01-26T01:00:12;2.30;70.40
4312;DHT22;2169;49.086;9.284;2023-01-26T01:02:41;2.30;71.10
4312;DHT22;2169;49.086;9.284;2023-01-26T01:05:08;2.30;70.40
4312;DHT22;2169;49.086;9.284;2023-01-26T01:07:35;2.30;70.50
4312;DHT22;2169;49.086;9.284;2023-01-26T01:10:04;2.30;70.40
4312;DHT22;2169;49.086;9.284;2023-01-26T01:12:30;2.30;70.40
4312;DHT22;2169;49.086;9.284;2023-01-26T01:14:57;2.20;70.40
4312;DHT22;2169;49.086;9.284;2023-01-26T01:17:24;2.20;70.40
4312;DHT22;2169;49.086;9.284;2023-01-26T01:19:51;2.20;70.40
4312;DHT22;2169;49.086;9.284;2023-01-26T01:22:18;2.20;70.40
4312;DHT22;2169;49.086;9.284;2023-01-26T01:24:45;2.10;70.40
4312;DHT22;2169;49.086;9.284;2023-01-26T01:27:13;2.10;70.40
4312;DHT22;2169;49.086;9.284;2023-01-26T01:29:39;2.10;70.50
4312;DHT22;2169;49.086;9.284;2023-01-26T01:32:06;2.10;70.50
4312;DHT22;2169;49.086;9.284;2023-01-26T01:34:33;2.10;70.50
4312;DHT22;2169;49.086;9.284;2023-01-26T01:37:00;2.10;70.50
4312;DHT22;2169;49.086;9.284;2023-01-26T01:39:26;2.10;70.50
4312;DHT22;2169;49.086;9.284;2023-01-26T01:41:53;2.10;70.60
4312;DHT22;2169;49.086;9.284;2023-01-26T01:44:22;2.10;70.60
4312;DHT22;2169;49.086;9.284;2023-01-26T01:46:52;2.10;70.60
4312;DHT22;2169;49.086;9.284;2023-01-26T01:49:23;2.10;70.60
4312;DHT22;2169;49.086;9.284;2023-01-26T01:51:55;2.10;70.60
4312;DHT22;2169;49.086;9.284;2023-01-26T01:54:27;2.10;70.60
4312;DHT22;2169;49.086;9.284;2023-01-26T01:56:58;2.20;70.70
4312;DHT22;2169;49.086;9.284;2023-01-26T01:59:27;2.10;70.60
4312;DHT22;2169;49.086;9.284;2023-01-26T02:01:55;2.10;70.60
4312;DHT22;2169;49.086;9.284;2023-01-26T02:04:23;2.20;70.60
4312;DHT22;2169;49.086;9.284;2023-01-26T02:06:53;2.10;70.60
4312;DHT22;2169;49.086;9.284;2023-01-26T02:09:24;2.20;70.70
4312;DHT22;2169;49.086;9.284;2023-01-26T02:12:24;2.10;70.60
4312;DHT22;2169;49.086;9.284;2023-01-26T02:14:53;2.20;70.70
4312;DHT22;2169;49.086;9.284;2023-01-26T02:17:20;2.10;70.60
4312;DHT22;2169;49.086;9.284;2023-01-26T02:19:59;2.10;70.60
4312;DHT22;2169;49.086;9.284;2023-01-26T02:22:31;2.10;70.60
4312;DHT22;2169;49.086;9.284;2023-01-26T02:25:06;2.10;70.60
4312;DHT22;2169;49.086;9.284;2023-01-26T02:27:34;2.10;70.60
4312;DHT22;2169;49.086;9.284;2023-01-26T02:30:02;2.00;70.50
4312;DHT22;2169;49.086;9.284;2023-01-26T02:32:30;2.00;70.60
4312;DHT22;2169;49.086;9.284;2023-01-26T02:34:57;2.00;71.30
4312;DHT22;2169;49.086;9.284;2023-01-26T02:37:23;2.00;70.60
4312;DHT22;2169;49.086;9.284;2023-01-26T02:39:54;2.00;70.60
4312;DHT22;2169;49.086;9.284;2023-01-26T02:42:22;1.90;70.60
4312;DHT22;2169;49.086;9.284;2023-01-26T02:45:09;1.90;70.60
4312;DHT22;2169;49.086;9.284;2023-01-26T02:47:36;1.90;70.60
4312;DHT22;2169;49.086;9.284;2023-01-26T02:50:05;1.90;70.60
4312;DHT22;2169;49.086;9.284;2023-01-26T02:52:31;1.90;70.70
4312;DHT22;2169;49.086;9.284;2023-01-26T02:54:57;1.90;70.70
4312;DHT22;2169;49.086;9.284;2023-01-26T02:57:42;1.90;70.70
4312;DHT22;2169;49.086;9.284;2023-01-26T03:00:12;1.90;70.80
4312;DHT22;2169;49.086;9.284;2023-01-26T03:02:40;1.90;70.70
4312;DHT22;2169;49.086;9.284;2023-01-26T03:05:07;1.80;70.70
4312;DHT22;2169;49.086;9.284;2023-01-26T03:07:34;1.90;70.70
4312;DHT22;2169;49.086;9.284;2023-01-26T03:10:02;1.80;70.70
4312;DHT22;2169;49.086;9.284;2023-01-26T03:12:31;1.80;70.70
4312;DHT22;2169;49.086;9.284;2023-01-26T03:14:58;1.80;70.70
4312;DHT22;2169;49.086;9.284;2023-01-26T03:17:40;1.90;70.80
4312;DHT22;2169;49.086;9.284;2023-01-26T03:20:09;1.80;70.70
4312;DHT22;2169;49.086;9.284;2023-01-26T03:22:53;1.90;70.80
4312;DHT22;2169;49.086;9.284;2023-01-26T03:25:37;1.90;70.80
4312;DHT22;2169;49.086;9.284;2023-01-26T03:28:21;1.80;70.70
4312;DHT22;2169;49.086;9.284;2023-01-26T03:30:48;1.80;70.70
4312;DHT22;2169;49.086;9.284;2023-01-26T03:33:17;1.80;70.70
4312;DHT22;2169;49.086;9.284;2023-01-26T03:35:45;1.80;70.70
4312;DHT22;2169;49.086;9.284;2023-01-26T03:38:12;1.80;70.70
4312;DHT22;2169;49.086;9.284;2023-01-26T03:40:39;1.80;70.70
4312;DHT22;2169;49.086;9.284;2023-01-26T03:43:23;1.80;70.70
4312;DHT22;2169;49.086;9.284;2023-01-26T03:46:07;1.80;70.80
4312;DHT22;2169;49.086;9.284;2023-01-26T03:48:53;1.80;70.80
4312;DHT22;2169;49.086;9.284;2023-01-26T03:51:37;1.80;70.80
4312;DHT22;2169;49.086;9.284;2023-01-26T03:54:22;1.80;70.80
4312;DHT22;2169;49.086;9.284;2023-01-26T03:57:06;1.80;70.80
4312;DHT22;2169;49.086;9.284;2023-01-26T03:59:32;1.80;70.80
4312;DHT22;2169;49.086;9.284;2023-01-26T04:02:07;1.80;70.80
4312;DHT22;2169;49.086;9.284;2023-01-26T04:04:53;1.80;70.80
4312;DHT22;2169;49.086;9.284;2023-01-26T04:07:38;1.80;70.90
4312;DHT22;2169;49.086;9.284;2023-01-26T04:10:23;1.70;70.80
4312;DHT22;2169;49.086;9.284;2023-01-26T04:12:50;1.70;70.80
4312;DHT22;2169;49.086;9.284;2023-01-26T04:15:35;1.70;70.90
4312;DHT22;2169;49.086;9.284;2023-01-26T04:18:19;1.70;70.80
4312;DHT22;2169;49.086;9.284;2023-01-26T04:21:05;1.70;70.80
4312;DHT22;2169;49.086;9.284;2023-01-26T04:23:51;1.70;70.90
4312;DHT22;2169;49.086;9.284;2023-01-26T04:26:19;1.70;70.90
4312;DHT22;2169;49.086;9.284;2023-01-26T04:28:45;1.70;70.90
4312;DHT22;2169;49.086;9.284;2023-01-26T04:31:12;1.70;70.90
4312;DHT22;2169;49.086;9.284;2023-01-26T04:33:40;1.70;70.90
4312;DHT22;2169;49.086;9.284;2023-01-26T04:36:09;1.70;70.90
4312;DHT22;2169;49.086;9.284;2023-01-26T04:38:36;1.70;70.90
4312;DHT22;2169;49.086;9.284;2023-01-26T04:41:03;1.60;70.80
4312;DHT22;2169;49.086;9.284;2023-01-26T04:43:30;1.70;70.80
4312;DHT22;2169;49.086;9.284;2023-01-26T04:45:57;1.60;70.80
4312;DHT22;2169;49.086;9.284;2023-01-26T04:48:24;1.60;70.80
4312;DHT22;2169;49.086;9.284;2023-01-26T04:50:55;1.60;70.80
4312;DHT22;2169;49.086;9.284;2023-01-26T04:53:23;1.60;70.80
4312;DHT22;2169;49.086;9.284;2023-01-26T04:55:50;1.60;70.80
4312;DHT22;2169;49.086;9.284;2023-01-26T04:58:17;1.60;70.80
4312;DHT22;2169;49.086;9.284;2023-01-26T05:00:49;1.60;70.80
4312;DHT22;2169;49.086;9.284;2023-01-26T05:03:16;1.60;70.80
4312;DHT22;2169;49.086;9.284;2023-01-26T05:05:44;1.60;70.70
4312;DHT22;2169;49.086;9.284;2023-01-26T05:08:13;1.60;70.80
4312;DHT22;2169;49.086;9.284;2023-01-26T05:10:41;1.60;70.80
4312;DHT22;2169;49.086;9.284;2023-01-26T05:13:08;1.60;70.80
4312;DHT22;2169;49.086;9.284;2023-01-26T05:15:35;1.60;70.80
4312;DHT22;2169;49.086;9.284;2023-01-26T05:18:03;1.60;70.80
4312;DHT22;2169;49.086;9.284;2023-01-26T05:20:30;1.60;70.90
4312;DHT22;2169;49.086;9.284;2023-01-26T05:22:57;1.60;71.00
4312;DHT22;2169;49.086;9.284;2023-01-26T05:25:24;1.60;70.90
4312;DHT22;2169;49.086;9.284;2023-01-26T05:27:52;1.60;70.90
4312;DHT22;2169;49.086;9.284;2023-01-26T05:30:19;1.60;70.90
4312;DHT22;2169;49.086;9.284;2023-01-26T05:32:46;1.60;71.00
4312;DHT22;2169;49.086;9.284;2023-01-26T05:35:13;1.50;70.80
4312;DHT22;2169;49.086;9.284;2023-01-26T05:37:39;1.50;70.90
4312;DHT22;2169;49.086;9.284;2023-01-26T05:40:08;1.50;70.90
4312;DHT22;2169;49.086;9.284;2023-01-26T05:42:35;1.50;70.90
4312;DHT22;2169;49.086;9.284;2023-01-26T05:45:04;1.50;70.90
4312;DHT22;2169;49.086;9.284;2023-01-26T05:47:31;1.50;70.90
4312;DHT22;2169;49.086;9.284;2023-01-26T05:49:58;1.50;70.90
4312;DHT22;2169;49.086;9.284;2023-01-26T05:52:25;1.60;71.00
4312;DHT22;2169;49.086;9.284;2023-01-26T05:54:51;1.50;70.90
4312;DHT22;2169;49.086;9.284;2023-01-26T05:57:18;1.50;70.90
4312;DHT22;2169;49.086;9.284;2023-01-26T05:59:45;1.50;70.80
4312;DHT22;2169;49.086;9.284;2023-01-26T06:02:13;1.50;70.80
4312;DHT22;2169;49.086;9.284;2023-01-26T06:04:40;1.50;70.80
4312;DHT22;2169;49.086;9.284;2023-01-26T06:07:08;1.50;70.80
4312;DHT22;2169;49.086;9.284;2023-01-26T06:09:35;1.50;70.80
4312;DHT22;2169;49.086;9.284;2023-01-26T06:12:02;1.40;70.70
4312;DHT22;2169;49.086;9.284;2023-01-26T06:14:28;1.40;70.70
4312;DHT22;2169;49.086;9.284;2023-01-26T06:16:55;1.40;70.70
4312;DHT22;2169;49.086;9.284;2023-01-26T06:19:23;1.40;70.70
4312;DHT22;2169;49.086;9.284;2023-01-26T06:21:50;1.40;70.70
4312;DHT22;2169;49.086;9.284;2023-01-26T06:24:17;1.40;70.70
4312;DHT22;2169;49.086;9.284;2023-01-26T06:26:46;1.40;70.70
4312;DHT22;2169;49.086;9.284;2023-01-26T06:29:12;1.40;70.70
4312;DHT22;2169;49.086;9.284;2023-01-26T06:31:39;1.40;70.70
4312;DHT22;2169;49.086;9.284;2023-01-26T06:34:06;1.40;70.70
4312;DHT22;2169;49.086;9.284;2023-01-26T06:36:34;1.40;70.70
4312;DHT22;2169;49.086;9.284;2023-01-26T06:39:01;1.40;70.70
4312;DHT22;2169;49.086;9.284;2023-01-26T06:41:28;1.30;70.60
4312;DHT22;2169;49.086;9.284;2023-01-26T06:43:55;1.40;70.70
4312;DHT22;2169;49.086;9.284;2023-01-26T06:46:21;1.30;70.60
4312;DHT22;2169;49.086;9.284;2023-01-26T06:48:48;1.30;70.60
4312;DHT22;2169;49.086;9.284;2023-01-26T06:51:40;1.30;70.70
4312;DHT22;2169;49.086;9.284;2023-01-26T06:54:09;1.30;70.70
4312;DHT22;2169;49.086;9.284;2023-01-26T06:56:36;1.30;70.70
4312;DHT22;2169;49.086;9.284;2023-01-26T06:59:02;1.30;70.60
4312;DHT22;2169;49.086;9.284;2023-01-26T07:01:32;1.30;70.60
4312;DHT22;2169;49.086;9.284;2023-01-26T07:04:00;1.30;71.30
4312;DHT22;2169;49.086;9.284;2023-01-26T07:06:27;1.30;70.70
4312;DHT22;2169;49.086;9.284;2023-01-26T07:08:55;1.30;70.70
4312;DHT22;2169;49.086;9.284;2023-01-26T07:11:21;1.30;70.70
4312;DHT22;2169;49.086;9.284;2023-01-26T07:13:49;1.20;70.60
4312;DHT22;2169;49.086;9.284;2023-01-26T07:16:17;1.20;70.70
4312;DHT22;2169;49.086;9.284;2023-01-26T07:18:44;1.20;70.70
4312;DHT22;2169;49.086;9.284;2023-01-26T07:21:13;1.20;70.70
4312;DHT22;2169;49.086;9.284;2023-01-26T07:23:40;1.30;70.80
4312;DHT22;2169;49.086;9.284;2023-01-26T07:26:08;1.30;70.70
4312;DHT22;2169;49.086;9.284;2023-01-26T07:28:35;1.30;70.80
4312;DHT22;2169;49.086;9.284;2023-01-26T07:31:03;1.30;70.70
4312;DHT22;2169;49.086;9.284;2023-01-26T07:33:31;1.30;70.80
4312;DHT22;2169;49.086;9.284;2023-01-26T07:35:58;1.30;70.60
4312;DHT22;2169;49.086;9.284;2023-01-26T07:38:26;1.30;70.60
4312;DHT22;2169;49.086;9.284;2023-01-26T07:40:53;1.30;70.50
4312;DHT22;2169;49.086;9.284;2023-01-26T07:43:22;1.30;70.50
4312;DHT22;2169;49.086;9.284;2023-01-26T07:45:50;1.30;70.50
4312;DHT22;2169;49.086;9.284;2023-01-26T07:48:18;1.20;70.40
4312;DHT22;2169;49.086;9.284;2023-01-26T07:50:45;1.30;70.60
4312;DHT22;2169;49.086;9.284;2023-01-26T07:53:13;1.20;70.50
4312;DHT22;2169;49.086;9.284;2023-01-26T07:55:43;1.20;70.50
4312;DHT22;2169;49.086;9.284;2023-01-26T07:58:10;1.20;70.50
4312;DHT22;2169;49.086;9.284;2023-01-26T08:00:38;1.30;70.60
4312;DHT22;2169;49.086;9.284;2023-01-26T08:03:05;1.30;70.60
4312;DHT22;2169;49.086;9.284;2023-01-26T08:05:32;1.30;70.70
4312;DHT22;2169;49.086;9.284;2023-01-26T08:08:00;1.30;70.70
4312;DHT22;2169;49.086;9.284;2023-01-26T08:10:27;1.30;70.70
4312;DHT22;2169;49.086;9.284;2023-01-26T08:12:56;1.30;70.70
4312;DHT22;2169;49.086;9.284;2023-01-26T08:15:24;1.30;70.80
4312;DHT22;2169;49.086;9.284;2023-01-26T08:17:52;1.30;70.70
4312;DHT22;2169;49.086;9.284;2023-01-26T08:20:19;1.30;70.80
4312;DHT22;2169;49.086;9.284;2023-01-26T08:22:46;1.30;70.70
4312;DHT22;2169;49.086;9.284;2023-01-26T08:25:13;1.30;70.70
4312;DHT22;2169;49.086;9.284;2023-01-26T08:27:39;1.30;70.70
4312;DHT22;2169;49.086;9.284;2023-01-26T08:30:07;1.30;70.80
4312;DHT22;2169;49.086;9.284;2023-01-26T08:32:34;1.30;70.70
4312;DHT22;2169;49.086;9.284;2023-01-26T08:35:03;1.30;70.70
4312;DHT22;2169;49.086;9.284;2023-01-26T08:37:29;1.30;70.60
4312;DHT22;2169;49.086;9.284;2023-01-26T08:39:56;1.30;70.60
4312;DHT22;2169;49.086;9.284;2023-01-26T08:42:23;1.30;70.60
4312;DHT22;2169;49.086;9.284;2023-01-26T08:44:50;1.30;70.60
4312;DHT22;2169;49.086;9.284;2023-01-26T08:47:17;1.30;70.60
4312;DHT22;2169;49.086;9.284;2023-01-26T08:49:44;1.30;70.50
4312;DHT22;2169;49.086;9.284;2023-01-26T08:52:12;1.30;70.50
4312;DHT22;2169;49.086;9.284;2023-01-26T08:54:39;1.40;70.60
4312;DHT22;2169;49.086;9.284;2023-01-26T08:57:06;1.40;70.60
4312;DHT22;2169;49.086;9.284;2023-01-26T08:59:32;1.30;70.50
4312;DHT22;2169;49.086;9.284;2023-01-26T09:01:59;1.40;70.60
4312;DHT22;2169;49.086;9.284;2023-01-26T09:04:26;1.30;70.50
4312;DHT22;2169;49.086;9.284;2023-01-26T09:06:53;1.30;70.50
4312;DHT22;2169;49.086;9.284;2023-01-26T09:09:21;1.30;70.50
4312;DHT22;2169;49.086;9.284;2023-01-26T09:11:48;1.40;70.60
4312;DHT22;2169;49.086;9.284;2023-01-26T09:14:14;1.30;70.50
4312;DHT22;2169;49.086;9.284;2023-01-26T09:16:41;1.40;70.60
4312;DHT22;2169;49.086;9.284;2023-01-26T09:19:08;1.30;70.50
4312;DHT22;2169;49.086;9.284;2023-01-26T09:21:34;1.40;70.70
4312;DHT22;2169;49.086;9.284;2023-01-26T09:24:01;1.40;70.70
4312;DHT22;2169;49.086;9.284;2023-01-26T09:26:30;1.40;70.70
4312;DHT22;2169;49.086;9.284;2023-01-26T09:28:57;1.40;70.70
4312;DHT22;2169;49.086;9.284;2023-01-26T09:31:23;1.40;70.70
4312;DHT22;2169;49.086;9.284;2023-01-26T09:33:50;1.40;70.70
4312;DHT22;2169;49.086;9.284;2023-01-26T09:36:17;1.40;70.70
4312;DHT22;2169;49.086;9.284;2023-01-26T09:38:44;1.40;70.70
4312;DHT22;2169;49.086;9.284;2023-01-26T09:41:31;1.40;70.70
4312;DHT22;2169;49.086;9.284;2023-01-26T09:44:04;1.40;70.80
4312;DHT22;2169;49.086;9.284;2023-01-26T09:46:42;1.40;70.70
4312;DHT22;2169;49.086;9.284;2023-01-26T09:49:15;1.40;70.80
4312;DHT22;2169;49.086;9.284;2023-01-26T09:51:46;1.30;70.60
4312;DHT22;2169;49.086;9.284;2023-01-26T09:54:21;1.30;70.60
4312;DHT22;2169;49.086;9.284;2023-01-26T09:56:50;1.40;70.70
4312;DHT22;2169;49.086;9.284;2023-01-26T09:59:26;1.40;70.80
4312;DHT22;2169;49.086;9.284;2023-01-26T10:02:00;1.40;70.70
4312;DHT22;2169;49.086;9.284;2023-01-26T10:04:32;1.40;70.70
4312;DHT22;2169;49.086;9.284;2023-01-26T10:07:03;1.40;70.70
4312;DHT22;2169;49.086;9.284;2023-01-26T10:09:34;1.40;70.70
4312;DHT22;2169;49.086;9.284;2023-01-26T10:12:04;1.30;70.60
4312;DHT22;2169;49.086;9.284;2023-01-26T10:14:36;1.40;70.70
4312;DHT22;2169;49.086;9.284;2023-01-26T10:17:06;1.30;70.60
4312;DHT22;2169;49.086;9.284;2023-01-26T10:19:41;1.30;70.60
4312;DHT22;2169;49.086;9.284;2023-01-26T10:22:13;1.30;70.60
4312;DHT22;2169;49.086;9.284;2023-01-26T10:24:42;1.30;70.60
4312;DHT22;2169;49.086;9.284;2023-01-26T10:27:10;1.30;70.60
4312;DHT22;2169;49.086;9.284;2023-01-26T10:29:39;1.30;70.50
4312;DHT22;2169;49.086;9.284;2023-01-26T10:32:11;1.30;70.50
4312;DHT22;2169;49.086;9.284;2023-01-26T10:34:38;1.40;70.60
4312;DHT22;2169;49.086;9.284;2023-01-26T10:37:18;1.30;70.40
4312;DHT22;2169;49.086;9.284;2023-01-26T10:39:57;1.30;70.40
4312;DHT22;2169;49.086;9.284;2023-01-26T10:42:26;1.30;70.40
4312;DHT22;2169;49.086;9.284;2023-01-26T10:44:56;1.30;70.40
4312;DHT22;2169;49.086;9.284;2023-01-26T10:47:23;1.30;70.40
4312;DHT22;2169;49.086;9.284;2023-01-26T10:49:51;1.30;70.40
4312;DHT22;2169;49.086;9.284;2023-01-26T10:52:19;1.30;70.30
4312;DHT22;2169;49.086;9.284;2023-01-26T10:54:47;1.30;70.30
4312;DHT22;2169;49.086;9.284;2023-01-26T10:57:17;1.30;70.30
4312;DHT22;2169;49.086;9.284;2023-01-26T10:59:52;1.30;70.20
4312;DHT22;2169;49.086;9.284;2023-01-26T11:02:24;1.30;70.30
4312;DHT22;2169;49.086;9.284;2023-01-26T11:05:17;1.30;70.20
4312;DHT22;2169;49.086;9.284;2023-01-26T11:07:46;1.30;70.20
4312;DHT22;2169;49.086;9.284;2023-01-26T11:10:19;1.30;70.10
4312;DHT22;2169;49.086;9.284;2023-01-26T11:12:46;1.30;70.20
4312;DHT22;2169;49.086;9.284;2023-01-26T11:15:16;1.30;70.00
4312;DHT22;2169;49.086;9.284;2023-01-26T11:17:49;1.30;70.00
4312;DHT22;2169;49.086;9.284;2023-01-26T11:20:45;1.30;70.10
4312;DHT22;2169;49.086;9.284;2023-01-26T11:23:20;1.40;70.20
4312;DHT22;2169;49.086;9.284;2023-01-26T11:26:04;1.40;70.10
4312;DHT22;2169;49.086;9.284;2023-01-26T11:28:43;1.40;70.10
4312;DHT22;2169;49.086;9.284;2023-01-26T11:31:17;1.40;70.10
4312;DHT22;2169;49.086;9.284;2023-01-26T11:33:58;1.40;70.00
4312;DHT22;2169;49.086;9.284;2023-01-26T11:36:33;1.30;69.80
4312;DHT22;2169;49.086;9.284;2023-01-26T11:39:10;1.30;69.80
4312;DHT22;2169;49.086;9.284;2023-01-26T11:41:50;1.30;69.80
4312;DHT22;2169;49.086;9.284;2023-01-26T11:44:45;1.30;69.80
4312;DHT22;2169;49.086;9.284;2023-01-26T11:47:28;1.30;70.40
4312;DHT22;2169;49.086;9.284;2023-01-26T11:50:27;1.40;69.90
4312;DHT22;2169;49.086;9.284;2023-01-26T11:53:14;1.40;69.80
4312;DHT22;2169;49.086;9.284;2023-01-26T11:55:55;1.40;69.70
4312;DHT22;2169;49.086;9.284;2023-01-26T11:58:30;1.40;69.70
4312;DHT22;2169;49.086;9.284;2023-01-26T12:00:58;1.40;69.60
4312;DHT22;2169;49.086;9.284;2023-01-26T12:03:29;1.40;69.60
4312;DHT22;2169;49.086;9.284;2023-01-26T12:06:04;1.40;69.60
4312;DHT22;2169;49.086;9.284;2023-01-26T12:08:36;1.40;69.60
4312;DHT22;2169;49.086;9.284;2023-01-26T12:11:08;1.40;69.60
4312;DHT22;2169;49.086;9.284;2023-01-26T12:14:17;1.40;69.60
4312;DHT22;2169;49.086;9.284;2023-01-26T12:16:59;1.40;69.60
4312;DHT22;2169;49.086;9.284;2023-01-26T12:19:37;1.40;69.40
4312;DHT22;2169;49.086;9.284;2023-01-26T12:22:12;1.40;69.40
4312;DHT22;2169;49.086;9.284;2023-01-26T12:24:44;1.40;69.30
4312;DHT22;2169;49.086;9.284;2023-01-26T12:27:18;1.40;69.30
4312;DHT22;2169;49.086;9.284;2023-01-26T12:29:51;1.40;69.30
4312;DHT22;2169;49.086;9.284;2023-01-26T12:32:20;1.40;69.30
4312;DHT22;2169;49.086;9.284;2023-01-26T12:34:47;1.40;69.30
4312;DHT22;2169;49.086;9.284;2023-01-26T12:37:49;1.50;69.40
4312;DHT22;2169;49.086;9.284;2023-01-26T12:40:27;1.50;69.30
4312;DHT22;2169;49.086;9.284;2023-01-26T12:43:04;1.50;69.30
4312;DHT22;2169;49.086;9.284;2023-01-26T12:45:36;1.50;69.30
4312;DHT22;2169;49.086;9.284;2023-01-26T12:48:12;1.50;69.30
4312;DHT22;2169;49.086;9.284;2023-01-26T12:50:43;1.50;69.30
4312;DHT22;2169;49.086;9.284;2023-01-26T12:53:17;1.60;69.30
4312;DHT22;2169;49.086;9.284;2023-01-26T12:55:48;1.60;69.30
4312;DHT22;2169;49.086;9.284;2023-01-26T12:58:21;1.60;69.20
4312;DHT22;2169;49.086;9.284;2023-01-26T13:00:53;1.60;69.20
4312;DHT22;2169;49.086;9.284;2023-01-26T13:03:24;1.60;69.20
4312;DHT22;2169;49.086;9.284;2023-01-26T13:05:57;1.60;69.20
4312;DHT22;2169;49.086;9.284;2023-01-26T13:08:48;1.60;69.20
4312;DHT22;2169;49.086;9.284;2023-01-26T13:11:42;1.70;69.20
4312;DHT22;2169;49.086;9.284;2023-01-26T13:14:33;1.70;69.20
4312;DHT22;2169;49.086;9.284;2023-01-26T13:20:25;1.70;69.00
4312;DHT22;2169;49.086;9.284;2023-01-26T13:22:53;1.70;69.00
4312;DHT22;2169;49.086;9.284;2023-01-26T13:25:28;1.70;69.00
4312;DHT22;2169;49.086;9.284;2023-01-26T13:27:57;1.70;69.00
4312;DHT22;2169;49.086;9.284;2023-01-26T13:30:33;1.70;69.00
4312;DHT22;2169;49.086;9.284;2023-01-26T13:33:10;1.70;68.90
4312;DHT22;2169;49.086;9.284;2023-01-26T13:35:38;1.70;68.90
4312;DHT22;2169;49.086;9.284;2023-01-26T13:38:11;1.70;68.90
4312;DHT22;2169;49.086;9.284;2023-01-26T13:40:43;1.70;68.90
4312;DHT22;2169;49.086;9.284;2023-01-26T13:43:16;1.70;68.90
4312;DHT22;2169;49.086;9.284;2023-01-26T13:45:54;1.70;68.90
4312;DHT22;2169;49.086;9.284;2023-01-26T13:48:35;1.70;68.90
4312;DHT22;2169;49.086;9.284;2023-01-26T13:51:03;1.80;69.00
4312;DHT22;2169;49.086;9.284;2023-01-26T13:53:34;1.80;69.00
4312;DHT22;2169;49.086;9.284;2023-01-26T13:56:05;1.80;68.90
4312;DHT22;2169;49.086;9.284;2023-01-26T13:58:33;1.80;68.90
4312;DHT22;2169;49.086;9.284;2023-01-26T14:01:01;1.80;68.90
4312;DHT22;2169;49.086;9.284;2023-01-26T14:03:28;1.80;69.00
4312;DHT22;2169;49.086;9.284;2023-01-26T14:05:58;1.80;68.90
4312;DHT22;2169;49.086;9.284;2023-01-26T14:08:26;1.80;69.70
4312;DHT22;2169;49.086;9.284;2023-01-26T14:10:53;1.80;68.90
4312;DHT22;2169;49.086;9.284;2023-01-26T14:13:26;1.80;68.90
4312;DHT22;2169;49.086;9.284;2023-01-26T14:15:56;1.80;68.90
4312;DHT22;2169;49.086;9.284;2023-01-26T14:18:24;1.80;68.80
4312;DHT22;2169;49.086;9.284;2023-01-26T14:20:57;1.80;68.80
4312;DHT22;2169;49.086;9.284;2023-01-26T14:23:26;1.80;68.80
4312;DHT22;2169;49.086;9.284;2023-01-26T14:25:57;1.90;68.90
4312;DHT22;2169;49.086;9.284;2023-01-26T14:28:28;1.80;68.80
4312;DHT22;2169;49.086;9.284;2023-01-26T14:31:00;1.80;68.80
4312;DHT22;2169;49.086;9.284;2023-01-26T14:33:28;1.80;68.80
4312;DHT22;2169;49.086;9.284;2023-01-26T14:35:58;1.80;68.80
4312;DHT22;2169;49.086;9.284;2023-01-26T14:38:26;1.80;68.80
4312;DHT22;2169;49.086;9.284;2023-01-26T14:40:54;1.90;68.90
4312;DHT22;2169;49.086;9.284;2023-01-26T14:43:23;1.80;68.70
4312;DHT22;2169;49.086;9.284;2023-01-26T14:45:54;1.80;68.80
4312;DHT22;2169;49.086;9.284;2023-01-26T14:48:26;1.90;68.90
4312;DHT22;2169;49.086;9.284;2023-01-26T14:50:54;1.80;68.80
4312;DHT22;2169;49.086;9.284;2023-01-26T14:53:23;1.80;68.80
4312;DHT22;2169;49.086;9.284;2023-01-26T14:55:51;1.80;68.80
4312;DHT22;2169;49.086;9.284;2023-01-26T14:58:20;1.90;68.90
4312;DHT22;2169;49.086;9.284;2023-01-26T15:00:49;1.90;68.90
4312;DHT22;2169;49.086;9.284;2023-01-26T15:03:25;1.90;68.90
4312;DHT22;2169;49.086;9.284;2023-01-26T15:06:15;1.90;68.90
4312;DHT22;2169;49.086;9.284;2023-01-26T15:08:54;1.90;68.90
4312;DHT22;2169;49.086;9.284;2023-01-26T15:11:27;1.90;68.90
4312;DHT22;2169;49.086;9.284;2023-01-26T15:14:34;1.90;68.90
4312;DHT22;2169;49.086;9.284;2023-01-26T15:17:01;1.90;68.90
4312;DHT22;2169;49.086;9.284;2023-01-26T15:19:40;1.90;69.00
4312;DHT22;2169;49.086;9.284;2023-01-26T15:22:21;2.00;69.10
4312;DHT22;2169;49.086;9.284;2023-01-26T15:24:59;1.90;69.00
4312;DHT22;2169;49.086;9.284;2023-01-26T15:27:30;2.00;69.10
4312;DHT22;2169;49.086;9.284;2023-01-26T15:29:58;2.00;69.20
4312;DHT22;2169;49.086;9.284;2023-01-26T15:32:27;2.00;69.20
4312;DHT22;2169;49.086;9.284;2023-01-26T15:35:05;2.00;69.20
4312;DHT22;2169;49.086;9.284;2023-01-26T15:37:32;2.00;69.20
4312;DHT22;2169;49.086;9.284;2023-01-26T15:40:00;2.00;69.20
4312;DHT22;2169;49.086;9.284;2023-01-26T15:42:28;2.10;69.30
4312;DHT22;2169;49.086;9.284;2023-01-26T15:44:55;2.10;69.30
4312;DHT22;2169;49.086;9.284;2023-01-26T15:47:22;2.10;69.30
4312;DHT22;2169;49.086;9.284;2023-01-26T15:49:49;2.10;69.30
4312;DHT22;2169;49.086;9.284;2023-01-26T15:52:19;2.10;69.30
4312;DHT22;2169;49.086;9.284;2023-01-26T15:54:47;2.10;69.20
4312;DHT22;2169;49.086;9.284;2023-01-26T15:57:16;2.10;69.20
4312;DHT22;2169;49.086;9.284;2023-01-26T15:59:43;2.10;69.20
4312;DHT22;2169;49.086;9.284;2023-01-26T16:02:12;2.10;69.20
4312;DHT22;2169;49.086;9.284;2023-01-26T16:04:39;2.10;69.20
4312;DHT22;2169;49.086;9.284;2023-01-26T16:07:10;2.20;69.30
4312;DHT22;2169;49.086;9.284;2023-01-26T16:09:38;2.10;69.20
4312;DHT22;2169;49.086;9.284;2023-01-26T16:12:09;2.20;69.30
4312;DHT22;2169;49.086;9.284;2023-01-26T16:14:37;2.20;69.30
4312;DHT22;2169;49.086;9.284;2023-01-26T16:17:11;2.20;69.30
4312;DHT22;2169;49.086;9.284;2023-01-26T16:19:38;2.20;69.30
4312;DHT22;2169;49.086;9.284;2023-01-26T16:22:05;2.20;69.30
4312;DHT22;2169;49.086;9.284;2023-01-26T16:24:32;2.20;69.30
4312;DHT22;2169;49.086;9.284;2023-01-26T16:27:00;2.20;69.30
4312;DHT22;2169;49.086;9.284;2023-01-26T16:29:26;2.20;69.40
4312;DHT22;2169;49.086;9.284;2023-01-26T16:31:53;2.20;69.30
4312;DHT22;2169;49.086;9.284;2023-01-26T16:34:20;2.20;69.30
4312;DHT22;2169;49.086;9.284;2023-01-26T16:36:47;2.20;69.30
4312;DHT22;2169;49.086;9.284;2023-01-26T16:39:13;2.20;69.30
4312;DHT22;2169;49.086;9.284;2023-01-26T16:41:40;2.10;69.20
4312;DHT22;2169;49.086;9.284;2023-01-26T16:44:12;2.10;69.20